Bookmark and Share
Track history (hours):
 

Nicole Leigh Reinauer

More information available from US FCC via Universal Licensing System and Coast Guard Vessel Documentation Center.

Last reported at 2014-Apr-18 19:23 UTC. Time now 2014-Apr-19 19:45 UTC.
Position N 25°31' W 080°03'.

Length 167 m; draft 8 m.

Type: Wing in ground effect craft. MMSI: 366774330.

NotesDate/timePositionNaut miles runAvg speedWind from/ knotsBaromVisibWave heightAir tempDewpointWater temp
2014-Apr-18 19:23N 25°31' W 080°03'6 7.3
2014-Apr-18 18:33N 25°37' W 080°03'8 7.6
2014-Apr-18 17:33N 25°44' W 080°04'3 2.9
2014-Apr-18 16:33N 25°47' W 080°05'0 0.1
2014-Apr-18 15:33N 25°47' W 080°06'0 0.0
2014-Apr-18 14:33N 25°47' W 080°06'0 0.0
2014-Apr-18 13:33N 25°47' W 080°06'0 0.0
2014-Apr-18 12:33N 25°47' W 080°06'0 0.0
2014-Apr-18 11:33N 25°47' W 080°06'0 0.1
2014-Apr-18 10:33N 25°47' W 080°06'0 0.1
2014-Apr-18 09:33N 25°47' W 080°06'0 0.2
2014-Apr-18 08:33N 25°47' W 080°06'7 7.1
2014-Apr-18 07:33N 25°41' W 080°02'1111.1
2014-Apr-18 06:33N 25°30' W 080°03'1 0.3
2014-Apr-18 03:33N 25°31' W 080°03'7 7.1
2014-Apr-18 02:33N 25°38' W 080°03'7 7.2
2014-Apr-18 01:33N 25°45' W 080°02'8 7.8
2014-Apr-18 00:33N 25°53' W 080°02'1010.0
2014-Apr-17 23:33N 26°03' W 080°01'1111.0
2014-Apr-17 22:33N 26°14' W 080°00'1010.3
2014-Apr-17 21:33N 26°24' W 079°59'10 9.9
2014-Apr-17 20:33N 26°34' W 079°59'11 9.4
2014-Apr-17 19:22N 26°45' W 079°58'10 8.9
2014-Apr-17 18:12N 26°55' W 079°60'710.3
2014-Apr-17 17:33N 27°02' W 080°01'1111.0
2014-Apr-17 16:33N 27°13' W 080°02'  
2014-Apr-13 11:12N 36°41' W 075°35'1810.6
2014-Apr-13 09:30N 36°59' W 075°32'1010.9
2014-Apr-13 08:33N 37°09' W 075°30'1410.9
2014-Apr-13 07:14N 37°23' W 075°27'710.8
2014-Apr-13 06:33N 37°30' W 075°25'7510.7
2014-Apr-12 23:33N 38°36' W 074°39'1110.7
2014-Apr-12 22:29N 38°46' W 074°33'1210.6
2014-Apr-12 21:21N 38°57' W 074°27'1010.7
2014-Apr-12 20:24N 39°06' W 074°21'1010.6
2014-Apr-12 19:29N 39°15' W 074°16'1410.6
2014-Apr-12 18:09N 39°28' W 074°09'610.6
2014-Apr-12 17:33N 39°34' W 074°05'1110.5
2014-Apr-12 16:33N 39°43' W 073°60'1110.5
2014-Apr-12 15:33N 39°54' W 073°58'1210.7
2014-Apr-12 14:26N 40°06' W 073°56'910.1
2014-Apr-12 13:33N 40°14' W 073°56'1110.9
2014-Apr-12 12:34N 40°25' W 073°54'10 9.5
2014-Apr-12 11:33N 40°33' W 074°02'7 6.6
2014-Apr-12 10:33N 40°39' W 074°03'0 0.1
2014-Apr-12 09:33N 40°39' W 074°03'0 0.2
2014-Apr-12 08:33N 40°39' W 074°03'5 4.8
2014-Apr-12 07:33N 40°39' W 074°09'4 4.0
2014-Apr-12 06:26N 40°35' W 074°13'0 0.0
2014-Apr-12 05:25N 40°35' W 074°13'0 0.0
2014-Apr-11 21:32N 40°35' W 074°13'0 0.1
2014-Apr-11 17:16N 40°35' W 074°13'0 0.1
2014-Apr-11 16:32N 40°35' W 074°13'0 0.0
2014-Apr-11 15:33N 40°35' W 074°13'0 0.0
2014-Apr-11 14:33N 40°35' W 074°13'0 0.0
2014-Apr-11 13:33N 40°35' W 074°13'0 0.0
2014-Apr-11 12:33N 40°35' W 074°13'0 0.0
2014-Apr-11 11:33N 40°35' W 074°13'0 0.0
2014-Apr-11 10:33N 40°35' W 074°13'0 0.0
2014-Apr-11 09:33N 40°35' W 074°13'0 0.0
2014-Apr-11 08:33N 40°35' W 074°13'0 0.0
2014-Apr-11 07:33N 40°35' W 074°13'0 0.0
2014-Apr-11 06:33N 40°35' W 074°13'0 0.0
2014-Apr-11 05:32N 40°35' W 074°13'5 5.0
2014-Apr-11 04:33N 40°39' W 074°08'0 0.3
2014-Apr-11 03:33N 40°38' W 074°08'0 0.0
2014-Apr-11 02:33N 40°38' W 074°08'1 0.5
2014-Apr-11 00:33N 40°39' W 074°09'1 1.0
2014-Apr-10 23:33N 40°38' W 074°08'11 2.6
2014-Apr-10 19:12N 40°29' W 073°60'40 9.9
2014-Apr-10 15:13N 39°49' W 073°58'711.0
2014-Apr-10 14:33N 39°42' W 073°59'1111.1
2014-Apr-10 13:33N 39°32' W 074°06'  

Dump ship's entire track history

sailing weather and tide predictions

Nicole Leigh Reinauer — WCZ5696 — position and weather